Time;durP1;ratioP1;P1;durP2;ratioP2;P2;SDS_P1;SDS_P2;PMS_P1;PMS_P2;Temp;Humidity;BMP_temperature;BMP_pressure;BME280_temperature;BME280_humidity;BME280_pressure;Samples;Min_cycle;Max_cycle;Signal;HPM_P1;HPM_P2
2023/09/14 00:01:46;;;;;;;3.55;3.10;;;20.50;69.70;;;;;;5019068;28;20297;-64
2023/09/14 00:04:11;;;;;;;6.25;5.70;;;20.50;70.00;;;;;;5020231;28;20068;-65
2023/09/14 00:06:37;;;;;;;5.43;4.13;;;20.40;69.30;;;;;;5017951;28;20083;-63
2023/09/14 00:09:03;;;;;;;6.43;5.88;;;20.20;70.50;;;;;;5021612;28;20025;-61
2023/09/14 00:11:28;;;;;;;4.50;4.10;;;20.30;69.80;;;;;;5020560;28;20114;-58
2023/09/14 00:13:54;;;;;;;3.35;3.05;;;20.30;70.60;;;;;;5020543;28;20048;-64
2023/09/14 00:16:19;;;;;;;5.97;3.88;;;20.50;70.00;;;;;;5019869;28;20060;-62
2023/09/14 00:18:45;;;;;;;5.22;4.65;;;20.60;69.40;;;;;;5020499;28;20373;-64
2023/09/14 00:21:11;;;;;;;3.40;3.08;;;20.30;69.70;;;;;;5019937;28;20091;-64
2023/09/14 00:23:36;;;;;;;3.83;3.00;;;20.40;70.40;;;;;;5022082;28;20451;-59
2023/09/14 00:26:02;;;;;;;4.93;4.47;;;20.40;70.20;;;;;;5021805;28;20049;-64
2023/09/14 00:28:28;;;;;;;3.97;3.67;;;20.50;69.50;;;;;;5021775;28;20052;-64
2023/09/14 00:30:53;;;;;;;3.60;3.30;;;20.50;69.90;;;;;;5020741;28;20062;-64
2023/09/14 00:33:20;;;;;;;4.88;4.47;;;20.60;69.40;;;;;;5024608;28;20449;-64
2023/09/14 00:35:46;;;;;;;7.35;4.50;;;20.70;68.20;;;;;;5024450;28;20522;-63
2023/09/14 00:38:12;;;;;;;3.83;3.53;;;20.50;68.10;;;;;;5021044;28;20098;-63
2023/09/14 00:40:38;;;;;;;3.60;3.28;;;20.50;69.20;;;;;;5022074;28;20030;-64
2023/09/14 00:43:03;;;;;;;3.63;3.20;;;20.30;69.40;;;;;;5021898;28;20045;-64
2023/09/14 00:45:31;;;;;;;3.50;2.78;;;20.30;69.10;;;;;;5021231;28;20749;-63
2023/09/14 00:47:59;;;;;;;2.95;2.63;;;20.00;69.70;;;;;;5020991;28;20498;-61
2023/09/14 00:50:26;;;;;;;3.08;2.28;;;19.90;70.30;;;;;;5021025;28;20064;-62
2023/09/14 00:52:58;;;;;;;3.00;2.30;;;20.00;70.60;;;;;;5016821;28;20500;-64
2023/09/14 00:55:27;;;;;;;2.42;2.00;;;20.10;70.10;;;;;;5017430;28;20041;-64
2023/09/14 00:57:52;;;;;;;2.15;1.80;;;20.20;69.30;;;;;;5016847;28;20037;-64
2023/09/14 01:00:19;;;;;;;2.47;1.95;;;20.30;69.30;;;;;;5020878;28;20049;-64
2023/09/14 01:02:44;;;;;;;1.73;1.45;;;20.30;68.90;;;;;;5018839;28;20149;-63
2023/09/14 01:05:14;;;;;;;2.20;1.63;;;20.40;68.50;;;;;;5019184;28;20468;-64
2023/09/14 01:07:40;;;;;;;2.58;1.90;;;20.30;69.10;;;;;;5020220;28;25279;-64
2023/09/14 01:10:07;;;;;;;2.30;1.40;;;20.30;68.50;;;;;;5018246;28;20034;-65
2023/09/14 01:12:33;;;;;;;5.35;2.35;;;20.20;69.10;;;;;;5019250;28;20454;-59
2023/09/14 01:15:09;;;;;;;3.50;1.85;;;20.20;69.30;;;;;;5016779;28;20029;-64
2023/09/14 01:17:58;;;;;;;1.45;1.30;;;20.30;69.00;;;;;;5019159;28;20456;-63
2023/09/14 01:20:56;;;;;;;2.22;1.10;;;20.10;69.00;;;;;;5019041;28;20471;-64
2023/09/14 01:24:01;;;;;;;2.78;1.40;;;20.10;68.60;;;;;;5020052;28;20577;-63
2023/09/14 01:26:29;;;;;;;2.00;1.13;;;20.10;69.30;;;;;;5015651;28;20033;-64
2023/09/14 01:28:54;;;;;;;1.33;1.00;;;20.30;69.50;;;;;;5020294;28;20618;-62
2023/09/14 01:31:20;;;;;;;1.30;1.02;;;20.30;69.30;;;;;;5019021;28;20048;-65
2023/09/14 01:33:48;;;;;;;2.47;1.20;;;20.50;68.80;;;;;;5019816;28;20033;-64
2023/09/14 01:36:25;;;;;;;2.00;1.40;;;20.40;68.50;;;;;;5019687;28;20087;-60
2023/09/14 01:38:53;;;;;;;2.65;2.20;;;20.40;68.40;;;;;;5016298;28;20530;-62
2023/09/14 01:41:19;;;;;;;2.40;1.30;;;20.30;68.40;;;;;;5016358;28;20120;-63
2023/09/14 01:43:48;;;;;;;1.67;1.00;;;20.00;69.60;;;;;;5016658;28;20037;-64
2023/09/14 01:46:14;;;;;;;2.85;1.25;;;20.10;69.40;;;;;;5021293;28;20033;-61
2023/09/14 01:48:40;;;;;;;2.97;1.77;;;20.10;68.90;;;;;;5019811;28;20030;-64
2023/09/14 01:51:05;;;;;;;2.42;1.45;;;20.00;69.20;;;;;;5017618;28;20061;-64
2023/09/14 01:53:31;;;;;;;2.15;1.67;;;20.00;69.40;;;;;;5020659;28;20112;-62
2023/09/14 01:55:56;;;;;;;2.00;1.17;;;20.00;69.10;;;;;;5018959;28;20041;-64
2023/09/14 01:58:22;;;;;;;2.72;1.45;;;20.00;70.10;;;;;;5021632;28;20034;-64
2023/09/14 02:00:47;;;;;;;2.25;1.00;;;20.00;69.70;;;;;;5022900;28;20036;-65
2023/09/14 02:03:13;;;;;;;3.10;1.05;;;20.20;69.40;;;;;;5020652;28;20025;-62
2023/09/14 02:05:40;;;;;;;1.70;1.02;;;20.20;68.70;;;;;;5020153;28;20108;-62
2023/09/14 02:08:05;;;;;;;2.65;1.15;;;20.30;69.20;;;;;;5019067;28;20079;-64
2023/09/14 02:10:31;;;;;;;1.73;1.48;;;20.20;68.90;;;;;;5017833;28;20026;-64
2023/09/14 02:12:56;;;;;;;1.60;1.00;;;20.00;68.80;;;;;;5018062;28;20030;-58
2023/09/14 02:15:22;;;;;;;2.45;1.95;;;19.90;69.80;;;;;;5017075;28;20033;-60
2023/09/14 02:17:48;;;;;;;1.95;1.33;;;19.90;68.40;;;;;;5019538;28;20404;-60
2023/09/14 02:20:14;;;;;;;1.17;1.05;;;19.80;69.70;;;;;;5017142;28;20060;-61
2023/09/14 02:22:40;;;;;;;4.05;2.03;;;20.10;69.30;;;;;;5018694;28;20471;-63
2023/09/14 02:25:06;;;;;;;3.47;1.50;;;19.80;69.20;;;;;;5020328;28;20108;-57
2023/09/14 02:27:31;;;;;;;2.50;1.55;;;19.80;69.90;;;;;;5020053;28;20049;-64
2023/09/14 02:33:19;;;;;;;4.90;2.13;;;19.90;69.70;;;;;;5017667;28;20044;-64
2023/09/14 02:35:50;;;;;;;3.83;1.67;;;20.00;68.60;;;;;;5017743;28;20033;-63
2023/09/14 02:38:16;;;;;;;3.45;1.77;;;20.00;69.70;;;;;;5015851;28;20041;-60
2023/09/14 02:40:42;;;;;;;2.25;1.58;;;19.90;69.60;;;;;;5019281;28;20030;-61
2023/09/14 02:43:07;;;;;;;2.28;1.58;;;19.90;70.00;;;;;;5016259;28;20107;-62
2023/09/14 02:45:33;;;;;;;6.30;2.70;;;20.00;69.60;;;;;;5017159;28;20068;-65
2023/09/14 02:47:59;;;;;;;3.08;2.15;;;19.90;69.70;;;;;;5019638;28;20033;-64
2023/09/14 02:50:24;;;;;;;3.88;1.50;;;20.00;69.50;;;;;;5019296;28;20037;-65
2023/09/14 02:52:50;;;;;;;4.18;2.15;;;20.00;69.70;;;;;;5022224;28;20041;-64
2023/09/14 02:55:15;;;;;;;4.13;2.10;;;19.80;69.90;;;;;;5023777;28;20033;-64
2023/09/14 02:57:41;;;;;;;4.68;2.17;;;19.90;69.70;;;;;;5004987;28;20049;-64
2023/09/14 03:00:08;;;;;;;3.78;2.72;;;19.80;69.50;;;;;;5023706;28;20049;-64
2023/09/14 03:02:33;;;;;;;2.83;1.70;;;19.70;68.80;;;;;;5023316;28;20120;-61
2023/09/14 03:04:59;;;;;;;5.30;2.13;;;19.70;69.70;;;;;;5021223;28;20172;-64
2023/09/14 03:07:24;;;;;;;3.80;1.70;;;19.70;69.90;;;;;;5021514;28;20041;-64
2023/09/14 03:09:50;;;;;;;3.33;2.20;;;19.90;70.00;;;;;;5024851;28;20710;-64
2023/09/14 03:12:15;;;;;;;3.20;1.92;;;19.90;67.90;;;;;;5019716;28;20072;-65
2023/09/14 03:14:41;;;;;;;3.15;2.00;;;19.90;68.90;;;;;;5017850;28;20536;-63
2023/09/14 03:17:06;;;;;;;5.35;2.85;;;19.70;69.00;;;;;;5018866;28;20125;-65
2023/09/14 03:19:32;;;;;;;3.58;2.33;;;19.60;68.10;;;;;;5022806;28;20064;-64
2023/09/14 03:21:57;;;;;;;4.97;2.10;;;19.50;68.70;;;;;;5021819;28;20672;-64
2023/09/14 03:24:23;;;;;;;4.35;1.98;;;19.40;69.40;;;;;;5022719;28;20040;-65
2023/09/14 03:26:48;;;;;;;3.90;1.98;;;19.60;70.00;;;;;;5023918;28;20041;-61
2023/09/14 03:29:14;;;;;;;3.63;2.20;;;19.50;69.40;;;;;;5023427;28;20037;-65
2023/09/14 03:31:39;;;;;;;4.88;1.58;;;19.70;69.10;;;;;;5022281;28;20026;-63
2023/09/14 03:34:07;;;;;;;6.03;2.60;;;19.60;69.60;;;;;;5015415;28;20045;-64
2023/09/14 03:36:32;;;;;;;3.35;1.95;;;19.40;69.00;;;;;;5021147;28;20388;-64
2023/09/14 03:38:58;;;;;;;5.63;2.83;;;19.40;69.50;;;;;;5019015;28;20117;-63
2023/09/14 03:41:23;;;;;;;3.72;1.85;;;19.60;69.10;;;;;;5023339;28;20030;-65
2023/09/14 03:43:49;;;;;;;4.95;1.60;;;19.60;69.90;;;;;;5024748;28;20484;-63
2023/09/14 03:46:15;;;;;;;2.63;1.52;;;19.60;69.40;;;;;;5024465;28;20078;-63
2023/09/14 03:48:41;;;;;;;2.30;1.35;;;19.80;69.30;;;;;;5024013;28;20514;-64
2023/09/14 03:51:07;;;;;;;4.13;1.52;;;20.00;69.40;;;;;;5019685;28;20037;-63
2023/09/14 03:53:32;;;;;;;3.30;1.63;;;20.10;69.10;;;;;;5020801;28;20117;-64
2023/09/14 03:56:03;;;;;;;3.55;1.90;;;20.20;68.70;;;;;;5022260;28;20095;-63
2023/09/14 03:58:29;;;;;;;4.75;1.95;;;20.10;68.30;;;;;;5021255;28;20029;-64
2023/09/14 04:00:55;;;;;;;3.20;1.70;;;20.00;68.60;;;;;;5022113;28;20033;-57
2023/09/14 04:03:21;;;;;;;4.85;2.03;;;20.10;69.00;;;;;;5019949;28;20034;-63
2023/09/14 04:05:46;;;;;;;6.63;3.15;;;19.90;68.50;;;;;;5018229;28;20063;-61
2023/09/14 04:08:12;;;;;;;4.18;2.13;;;20.00;68.00;;;;;;5021587;28;20155;-61
2023/09/14 04:10:39;;;;;;;5.35;2.85;;;19.90;69.10;;;;;;5014274;28;20041;-64
2023/09/14 04:13:23;;;;;;;3.03;1.73;;;19.80;68.00;;;;;;5016398;28;20065;-63
2023/09/14 04:15:49;;;;;;;4.22;2.30;;;19.50;69.30;;;;;;5023641;28;20100;-64
2023/09/14 04:18:14;;;;;;;2.85;1.38;;;19.60;69.40;;;;;;5022172;28;20112;-63
2023/09/14 04:20:39;;;;;;;5.05;2.15;;;19.70;69.80;;;;;;5019591;28;20029;-62
2023/09/14 04:23:05;;;;;;;5.10;2.60;;;19.80;68.70;;;;;;5020657;28;20037;-64
2023/09/14 04:25:31;;;;;;;4.93;2.47;;;19.70;68.20;;;;;;5019638;28;20037;-64
2023/09/14 04:27:56;;;;;;;3.95;2.10;;;19.70;68.60;;;;;;5019490;28;20068;-63
2023/09/14 04:30:22;;;;;;;2.42;1.40;;;19.70;68.70;;;;;;5022948;28;20033;-61
2023/09/14 04:32:47;;;;;;;4.38;2.05;;;19.80;69.50;;;;;;5018060;28;20451;-64
2023/09/14 04:35:13;;;;;;;6.25;2.50;;;19.90;68.40;;;;;;5017513;28;20121;-63
2023/09/14 04:37:38;;;;;;;3.88;2.15;;;19.60;68.20;;;;;;5022501;28;20093;-63
2023/09/14 04:40:08;;;;;;;5.15;2.50;;;19.50;69.40;;;;;;5023290;28;20090;-62
2023/09/14 04:42:34;;;;;;;4.25;1.90;;;19.50;69.60;;;;;;5023731;28;20531;-62
2023/09/14 04:44:59;;;;;;;5.18;2.20;;;19.40;69.80;;;;;;5017555;28;20057;-63
2023/09/14 04:47:25;;;;;;;5.88;2.97;;;19.40;69.60;;;;;;5023155;28;20572;-63
2023/09/14 04:49:51;;;;;;;4.22;2.63;;;19.50;69.80;;;;;;5022910;28;20071;-64
2023/09/14 04:52:16;;;;;;;7.63;2.60;;;19.50;69.40;;;;;;5023277;28;20061;-61
2023/09/14 04:54:42;;;;;;;2.58;2.00;;;19.60;69.40;;;;;;5022869;28;20069;-60
2023/09/14 04:57:07;;;;;;;4.72;2.25;;;19.80;68.90;;;;;;5022299;28;20656;-62
2023/09/14 04:59:33;;;;;;;4.50;3.15;;;19.90;68.90;;;;;;5020963;28;20030;-58
2023/09/14 05:01:58;;;;;;;4.40;2.17;;;19.70;68.40;;;;;;5023603;28;20037;-65
2023/09/14 05:04:24;;;;;;;4.82;3.20;;;19.80;69.30;;;;;;5020205;28;20132;-65
2023/09/14 05:06:49;;;;;;;3.63;1.98;;;19.80;67.80;;;;;;5016717;28;20025;-64
2023/09/14 05:09:15;;;;;;;4.65;2.13;;;20.00;68.70;;;;;;5013494;28;20033;-64
2023/09/14 05:11:40;;;;;;;5.07;2.45;;;20.00;68.40;;;;;;5019118;28;20041;-65
2023/09/14 05:14:06;;;;;;;5.30;3.17;;;19.90;68.30;;;;;;5016346;28;20046;-64
2023/09/14 05:16:31;;;;;;;3.72;2.45;;;19.80;68.40;;;;;;5021013;28;20172;-65
2023/09/14 05:18:57;;;;;;;3.78;2.33;;;19.60;69.20;;;;;;5016272;28;20121;-65
2023/09/14 05:21:22;;;;;;;2.83;1.92;;;19.80;69.30;;;;;;5020417;28;20033;-61
2023/09/14 05:23:48;;;;;;;6.88;3.58;;;20.00;69.00;;;;;;5021282;28;20033;-63
2023/09/14 05:26:13;;;;;;;6.68;2.83;;;19.90;67.60;;;;;;5021469;28;20448;-63
2023/09/14 05:28:39;;;;;;;7.38;1.95;;;20.00;69.90;;;;;;5025146;28;20294;-64
2023/09/14 05:31:04;;;;;;;7.50;1.92;;;20.20;70.10;;;;;;5019129;28;20037;-60
2023/09/14 05:33:30;;;;;;;7.47;1.98;;;20.30;69.40;;;;;;5020973;28;20038;-63
2023/09/14 05:35:55;;;;;;;6.90;3.42;;;20.40;69.00;;;;;;5023504;28;20399;-63
2023/09/14 05:38:21;;;;;;;7.28;1.98;;;20.40;67.50;;;;;;5019540;28;20083;-63
2023/09/14 05:40:46;;;;;;;6.35;1.73;;;20.40;69.60;;;;;;5018575;28;20042;-61
2023/09/14 05:43:12;;;;;;;4.93;2.60;;;20.40;69.60;;;;;;5019672;28;20029;-62
2023/09/14 05:45:39;;;;;;;5.38;2.60;;;20.40;68.50;;;;;;5016876;28;20138;-57
2023/09/14 05:48:05;;;;;;;4.50;1.95;;;20.40;69.60;;;;;;5017672;28;20403;-61
2023/09/14 05:50:33;;;;;;;4.72;2.13;;;20.50;69.00;;;;;;5018537;28;20030;-63
2023/09/14 05:52:58;;;;;;;4.60;2.33;;;20.50;69.40;;;;;;5016488;28;20038;-62
2023/09/14 05:55:24;;;;;;;4.85;2.58;;;20.50;69.30;;;;;;5020482;28;20026;-63
2023/09/14 05:57:49;;;;;;;4.50;1.52;;;20.50;69.00;;;;;;5023198;28;20030;-62
2023/09/14 06:00:15;;;;;;;4.65;1.98;;;20.60;69.40;;;;;;5019584;28;20112;-64
2023/09/14 06:02:42;;;;;;;3.80;2.05;;;20.60;69.00;;;;;;5020494;28;20463;-63
2023/09/14 06:05:08;;;;;;;4.50;2.22;;;20.70;69.60;;;;;;5020520;28;20035;-65
2023/09/14 06:07:33;;;;;;;4.88;2.40;;;20.70;70.60;;;;;;5021647;28;20581;-64
2023/09/14 06:09:59;;;;;;;5.97;3.13;;;20.70;69.10;;;;;;5020646;28;20136;-64
2023/09/14 06:12:24;;;;;;;4.80;3.70;;;20.70;68.60;;;;;;5021522;28;20030;-64
2023/09/14 06:14:50;;;;;;;5.85;3.88;;;20.60;68.20;;;;;;5017829;28;20046;-63
2023/09/14 06:17:15;;;;;;;6.78;4.20;;;20.60;67.20;;;;;;5018608;28;20488;-63
2023/09/14 06:19:41;;;;;;;5.95;3.40;;;20.50;67.20;;;;;;5018575;28;20088;-60
2023/09/14 06:22:08;;;;;;;8.70;4.30;;;20.50;66.90;;;;;;4999110;28;20034;-59
2023/09/14 06:24:33;;;;;;;6.40;3.63;;;20.50;66.60;;;;;;5017979;28;20029;-61
2023/09/14 06:26:59;;;;;;;5.43;2.97;;;20.50;66.70;;;;;;5021575;28;20052;-59
2023/09/14 06:29:25;;;;;;;7.32;3.15;;;20.50;66.60;;;;;;5005254;28;20030;-62
2023/09/14 06:31:50;;;;;;;6.90;3.30;;;20.60;66.80;;;;;;5013878;28;20730;-57
2023/09/14 06:34:16;;;;;;;6.07;2.85;;;20.60;66.80;;;;;;5023533;28;20037;-64
2023/09/14 06:36:41;;;;;;;8.35;3.13;;;20.60;66.20;;;;;;5026754;28;20037;-65
2023/09/14 06:39:07;;;;;;;5.22;2.63;;;20.60;66.40;;;;;;5024882;28;20045;-64
2023/09/14 06:41:33;;;;;;;8.10;3.17;;;20.60;66.30;;;;;;5027303;28;20049;-63
2023/09/14 06:43:58;;;;;;;8.98;4.50;;;20.60;65.90;;;;;;5007282;28;20541;-62
2023/09/14 06:46:23;;;;;;;6.30;4.18;;;20.60;65.40;;;;;;5022502;28;20038;-63
2023/09/14 06:48:49;;;;;;;6.18;3.60;;;20.50;65.70;;;;;;5021673;28;20552;-63
2023/09/14 06:51:14;;;;;;;7.55;3.38;;;20.50;67.00;;;;;;5023159;28;20048;-59
2023/09/14 06:53:40;;;;;;;14.27;4.97;;;20.60;66.80;;;;;;5018000;28;20095;-62
2023/09/14 06:56:10;;;;;;;11.93;6.13;;;20.60;67.20;;;;;;5024910;28;20403;-61
2023/09/14 06:58:37;;;;;;;11.27;4.78;;;20.70;68.40;;;;;;5022413;28;20033;-62
2023/09/14 07:01:04;;;;;;;8.70;4.22;;;20.70;68.00;;;;;;5022228;28;20029;-64
2023/09/14 07:03:31;;;;;;;7.25;4.30;;;20.70;67.50;;;;;;5019864;28;20056;-63
2023/09/14 07:05:57;;;;;;;8.93;4.40;;;20.70;68.00;;;;;;5021050;28;20037;-63
2023/09/14 07:08:23;;;;;;;6.18;3.83;;;20.70;68.00;;;;;;5026607;28;20064;-64
2023/09/14 07:10:48;;;;;;;7.07;3.67;;;20.80;67.80;;;;;;5023849;28;20030;-64
2023/09/14 07:13:14;;;;;;;7.35;4.05;;;20.80;67.80;;;;;;5023156;28;21401;-61
2023/09/14 07:15:40;;;;;;;6.55;2.97;;;20.60;66.20;;;;;;5022235;28;20029;-63
2023/09/14 07:18:05;;;;;;;5.72;3.28;;;20.50;67.30;;;;;;5020037;28;20034;-65
2023/09/14 07:20:31;;;;;;;6.55;3.45;;;20.60;67.70;;;;;;5021039;28;20373;-65
2023/09/14 07:22:57;;;;;;;5.82;2.95;;;20.60;67.70;;;;;;5019497;28;20364;-64
2023/09/14 07:25:23;;;;;;;5.82;2.80;;;20.60;67.60;;;;;;5018757;28;20496;-66
2023/09/14 07:27:48;;;;;;;7.38;3.40;;;20.70;67.80;;;;;;5022673;28;20099;-65
2023/09/14 07:30:14;;;;;;;4.10;2.75;;;20.70;67.60;;;;;;5020441;28;20745;-64
2023/09/14 07:32:40;;;;;;;5.85;3.15;;;20.70;67.60;;;;;;5003004;28;20030;-64
2023/09/14 07:35:07;;;;;;;6.28;3.15;;;20.70;67.60;;;;;;5007601;28;20026;-65
2023/09/14 07:37:33;;;;;;;7.13;3.25;;;20.70;67.30;;;;;;5025071;28;20398;-64
2023/09/14 07:39:59;;;;;;;3.63;3.22;;;20.60;67.40;;;;;;5026161;28;20021;-63
2023/09/14 07:42:24;;;;;;;5.22;2.80;;;20.70;67.70;;;;;;5020833;28;20044;-62
2023/09/14 07:44:50;;;;;;;5.28;2.75;;;20.80;67.30;;;;;;5019560;28;20045;-65
2023/09/14 07:47:16;;;;;;;8.95;4.05;;;20.80;67.50;;;;;;5018242;28;20056;-63
2023/09/14 07:49:45;;;;;;;4.30;2.55;;;20.80;66.30;;;;;;5021246;28;20056;-63
2023/09/14 07:52:11;;;;;;;4.95;2.50;;;20.80;67.60;;;;;;5020436;28;20065;-63
2023/09/14 07:54:36;;;;;;;5.30;2.95;;;20.80;67.50;;;;;;5021291;28;20068;-62
2023/09/14 07:57:02;;;;;;;6.90;4.07;;;20.80;67.00;;;;;;5023301;28;20030;-65
2023/09/14 07:59:28;;;;;;;6.65;3.53;;;20.60;66.30;;;;;;5021170;28;20503;-64
2023/09/14 08:01:53;;;;;;;6.72;4.72;;;20.30;67.70;;;;;;5019789;28;20054;-64
2023/09/14 08:04:19;;;;;;;5.00;3.75;;;20.30;67.50;;;;;;5016684;28;20194;-65
2023/09/14 08:06:44;;;;;;;7.93;5.03;;;20.20;67.30;;;;;;5024951;28;20064;-64
2023/09/14 08:09:10;;;;;;;6.03;3.83;;;20.30;67.80;;;;;;5006715;28;20153;-64
2023/09/14 08:11:36;;;;;;;4.43;2.88;;;20.30;67.50;;;;;;5022780;28;20499;-62
2023/09/14 08:14:02;;;;;;;6.70;3.67;;;20.40;67.60;;;;;;5019649;28;20026;-65
2023/09/14 08:16:31;;;;;;;6.75;4.05;;;20.50;67.70;;;;;;5021602;28;20492;-64
2023/09/14 08:18:57;;;;;;;5.38;3.80;;;20.50;67.70;;;;;;5020741;28;20098;-65
2023/09/14 08:21:22;;;;;;;6.88;5.18;;;20.60;66.70;;;;;;5019178;28;20131;-64
2023/09/14 08:23:48;;;;;;;6.57;3.55;;;20.40;66.50;;;;;;5015208;28;20664;-64
2023/09/14 08:26:13;;;;;;;5.13;3.50;;;20.30;67.40;;;;;;5002125;28;20496;-64
2023/09/14 08:28:39;;;;;;;8.52;5.68;;;20.30;68.20;;;;;;5021685;28;20037;-63
2023/09/14 08:31:04;;;;;;;5.65;3.95;;;20.40;66.30;;;;;;5000422;28;20511;-65
2023/09/14 08:33:30;;;;;;;5.90;3.05;;;20.40;67.00;;;;;;5023123;28;20408;-65
2023/09/14 08:35:55;;;;;;;4.65;3.38;;;20.30;67.80;;;;;;5020884;28;20396;-62
2023/09/14 08:38:22;;;;;;;6.97;4.57;;;20.40;68.00;;;;;;5021333;28;20514;-64
2023/09/14 08:40:53;;;;;;;4.53;4.07;;;20.40;67.40;;;;;;5018928;28;20053;-64
2023/09/14 08:43:20;;;;;;;7.85;4.75;;;20.60;67.90;;;;;;5019785;28;20065;-63
2023/09/14 08:45:45;;;;;;;6.65;4.70;;;20.40;66.90;;;;;;5018508;28;20044;-65
2023/09/14 08:48:13;;;;;;;8.07;4.72;;;20.40;66.20;;;;;;5021335;28;20033;-65
2023/09/14 08:50:40;;;;;;;11.35;5.65;;;20.50;66.20;;;;;;5020477;28;20095;-65
2023/09/14 08:53:06;;;;;;;7.22;4.18;;;20.30;65.80;;;;;;5022446;28;20048;-64
2023/09/14 08:55:34;;;;;;;4.20;3.40;;;20.10;67.00;;;;;;5020979;28;20464;-64
2023/09/14 08:58:01;;;;;;;5.45;3.38;;;20.30;67.50;;;;;;5017363;28;20017;-63
2023/09/14 09:00:29;;;;;;;12.50;5.95;;;20.50;67.60;;;;;;5020701;28;20052;-63
2023/09/14 09:02:56;;;;;;;8.63;3.88;;;20.60;65.00;;;;;;5000706;28;20041;-63
2023/09/14 09:05:26;;;;;;;6.40;3.10;;;20.40;67.20;;;;;;5020639;28;20084;-63
2023/09/14 09:07:54;;;;;;;10.55;3.35;;;20.50;67.50;;;;;;4991893;28;20048;-65
2023/09/14 09:10:29;;;;;;;7.97;4.53;;;20.60;67.40;;;;;;5017150;28;20456;-63
2023/09/14 09:12:55;;;;;;;;;;;20.70;66.30;;;;;;5015984;28;20033;-62
2023/09/14 09:15:24;;;;;;;4.97;4.05;;;20.50;65.30;;;;;;5018402;28;19913;-65
2023/09/14 09:17:53;;;;;;;4.75;3.00;;;20.30;66.50;;;;;;5019056;28;21271;-64
2023/09/14 09:20:22;;;;;;;3.35;2.85;;;20.50;67.60;;;;;;5016029;28;20073;-66
2023/09/14 09:22:52;;;;;;;6.35;4.53;;;20.70;67.10;;;;;;5019450;28;20029;-63
2023/09/14 09:25:19;;;;;;;7.90;3.33;;;20.70;64.90;;;;;;5004756;28;20033;-65
2023/09/14 09:27:45;;;;;;;7.07;3.63;;;20.60;66.70;;;;;;5015808;28;20546;-62
2023/09/14 09:30:13;;;;;;;4.25;3.03;;;20.60;65.10;;;;;;5020830;28;20018;-63
2023/09/14 09:32:42;;;;;;;4.72;3.45;;;20.50;65.80;;;;;;5013645;28;20121;-64
2023/09/14 09:35:25;;;;;;;3.40;2.67;;;20.60;66.10;;;;;;5015570;28;20033;-57
2023/09/14 09:37:52;;;;;;;7.13;3.05;;;20.70;66.00;;;;;;5016724;28;20029;-62
2023/09/14 09:40:22;;;;;;;4.50;2.92;;;20.70;65.90;;;;;;5018466;28;20104;-61
2023/09/14 09:42:49;;;;;;;4.10;2.85;;;20.80;65.60;;;;;;5002025;28;20022;-63
2023/09/14 09:45:15;;;;;;;4.75;3.28;;;20.80;66.60;;;;;;5019145;28;20421;-64
2023/09/14 09:47:41;;;;;;;5.18;3.42;;;20.80;66.00;;;;;;5002285;28;20035;-64
2023/09/14 09:50:12;;;;;;;5.72;2.85;;;20.60;66.10;;;;;;5012565;28;20040;-63
2023/09/14 09:52:39;;;;;;;5.25;2.58;;;20.70;66.70;;;;;;5008624;28;20053;-63
2023/09/14 09:55:06;;;;;;;6.50;3.47;;;20.80;66.70;;;;;;5025849;28;20022;-63
2023/09/14 09:57:37;;;;;;;4.00;2.58;;;20.80;65.60;;;;;;4994919;28;20028;-60
2023/09/14 10:00:12;;;;;;;7.50;2.60;;;20.60;66.20;;;;;;5019894;28;20097;-60
2023/09/14 10:02:37;;;;;;;7.72;2.97;;;20.70;66.70;;;;;;5008888;28;20038;-60
2023/09/14 10:05:03;;;;;;;6.85;3.20;;;20.60;65.10;;;;;;5023749;28;20079;-64
2023/09/14 10:07:29;;;;;;;4.07;2.35;;;20.50;65.60;;;;;;5023321;28;20523;-64
2023/09/14 10:09:54;;;;;;;6.00;2.60;;;20.60;67.20;;;;;;5007757;28;20514;-63
2023/09/14 10:12:24;;;;;;;3.47;2.25;;;20.70;67.10;;;;;;5022288;28;20040;-63
2023/09/14 10:14:54;;;;;;;5.43;2.88;;;20.80;66.90;;;;;;5022751;28;20131;-61
2023/09/14 10:17:25;;;;;;;4.45;2.88;;;20.80;66.00;;;;;;5025796;28;20056;-64
2023/09/14 10:19:51;;;;;;;4.00;2.22;;;20.70;64.30;;;;;;5023570;28;20037;-60
2023/09/14 10:22:19;;;;;;;4.68;2.80;;;20.60;66.60;;;;;;5022603;28;20373;-64
2023/09/14 10:24:46;;;;;;;4.22;2.20;;;20.60;66.00;;;;;;5023951;28;20484;-63
2023/09/14 10:27:13;;;;;;;5.78;2.53;;;20.70;67.10;;;;;;5019493;28;20068;-59
2023/09/14 10:29:42;;;;;;;2.83;2.17;;;20.80;66.80;;;;;;5024086;28;20034;-63
2023/09/14 10:32:10;;;;;;;3.38;2.38;;;20.90;66.50;;;;;;5021807;28;20129;-63
2023/09/14 10:34:37;;;;;;;4.20;2.08;;;20.90;66.60;;;;;;5023520;28;20030;-64
2023/09/14 10:37:04;;;;;;;3.92;2.42;;;20.90;66.40;;;;;;5020045;28;20589;-60
2023/09/14 10:39:30;;;;;;;4.93;2.85;;;20.90;64.50;;;;;;5020771;28;20067;-64
2023/09/14 10:41:56;;;;;;;39.50;27.13;;;20.50;65.10;;;;;;5021434;28;20278;-62
2023/09/14 10:44:22;;;;;;;47.92;32.30;;;20.50;66.40;;;;;;5022498;28;20034;-64
2023/09/14 10:46:52;;;;;;;61.45;41.35;;;20.50;65.50;;;;;;5022377;28;20671;-64
2023/09/14 10:49:22;;;;;;;47.20;30.35;;;20.60;66.50;;;;;;5022315;28;20038;-61
2023/09/14 10:51:48;;;;;;;49.90;30.55;;;20.40;65.00;;;;;;5020025;28;20100;-61
2023/09/14 10:54:14;;;;;;;48.65;29.15;;;20.40;66.60;;;;;;5023008;28;20131;-62
2023/09/14 10:56:40;;;;;;;38.90;25.42;;;20.50;67.00;;;;;;5020753;28;20022;-63
2023/09/14 10:59:09;;;;;;;39.08;22.58;;;20.70;67.10;;;;;;5024040;28;20167;-62
2023/09/14 11:01:46;;;;;;;33.10;21.70;;;20.70;66.40;;;;;;5023538;28;20052;-58
2023/09/14 11:04:14;;;;;;;22.73;15.73;;;20.80;66.50;;;;;;5020327;28;20053;-63
2023/09/14 11:06:51;;;;;;;16.90;10.93;;;20.90;66.80;;;;;;5020635;28;20440;-62
2023/09/14 11:09:18;;;;;;;22.83;14.00;;;20.80;65.20;;;;;;5020340;28;20116;-64
2023/09/14 11:11:45;;;;;;;14.07;10.30;;;20.60;65.40;;;;;;5020201;28;20419;-62
2023/09/14 11:14:13;;;;;;;17.27;10.85;;;20.40;65.80;;;;;;5023367;28;20033;-64
2023/09/14 11:16:49;;;;;;;15.35;8.80;;;20.50;66.70;;;;;;5023029;28;20029;-66
2023/09/14 11:19:29;;;;;;;12.27;6.47;;;20.70;66.50;;;;;;5024752;28;20029;-64
2023/09/14 11:22:04;;;;;;;12.23;6.82;;;20.70;64.40;;;;;;5021931;28;20565;-64
2023/09/14 11:24:33;;;;;;;9.57;6.25;;;20.70;64.60;;;;;;5013648;28;20037;-63
2023/09/14 11:26:59;;;;;;;9.30;6.10;;;20.60;65.90;;;;;;5007038;28;20562;-63
2023/09/14 11:29:26;;;;;;;10.73;6.00;;;20.70;66.10;;;;;;5019926;28;20065;-64
2023/09/14 11:32:07;;;;;;;8.77;5.32;;;20.60;65.90;;;;;;5019760;28;20071;-64
2023/09/14 11:34:36;;;;;;;7.55;4.80;;;20.70;66.40;;;;;;5018348;28;20303;-63
2023/09/14 11:37:05;;;;;;;7.72;4.40;;;20.70;66.50;;;;;;5016777;28;20037;-62
2023/09/14 11:39:31;;;;;;;8.95;4.88;;;20.80;66.00;;;;;;5020292;28;20030;-63
2023/09/14 11:42:00;;;;;;;8.90;4.47;;;20.80;66.20;;;;;;5020579;28;20048;-63
2023/09/14 11:44:31;;;;;;;8.30;4.70;;;20.90;66.00;;;;;;5022218;28;20405;-60
2023/09/14 11:46:59;;;;;;;7.45;4.55;;;20.80;65.20;;;;;;5004756;28;20169;-63
2023/09/14 11:49:30;;;;;;;7.30;4.32;;;20.70;65.60;;;;;;5022250;28;20045;-63
2023/09/14 11:51:56;;;;;;;8.93;4.00;;;20.70;65.20;;;;;;5009366;28;20128;-63
2023/09/14 11:54:27;;;;;;;6.72;4.13;;;20.70;66.30;;;;;;5021779;28;20124;-64
2023/09/14 11:57:03;;;;;;;6.55;3.53;;;20.70;65.80;;;;;;5004282;28;20030;-63
2023/09/14 11:59:32;;;;;;;7.78;3.30;;;20.50;65.20;;;;;;5013781;28;20476;-61
2023/09/14 12:02:00;;;;;;;7.95;3.25;;;20.60;66.40;;;;;;4990461;28;20514;-63
2023/09/14 12:04:30;;;;;;;6.85;3.20;;;20.60;65.00;;;;;;5020546;28;20030;-63
2023/09/14 12:07:00;;;;;;;6.20;3.42;;;20.50;65.10;;;;;;5018602;28;20029;-63
2023/09/14 12:09:40;;;;;;;3.60;2.65;;;20.40;65.60;;;;;;5024095;28;20492;-64
2023/09/14 12:12:06;;;;;;;4.18;2.70;;;20.30;66.30;;;;;;5025739;28;20030;-64
2023/09/14 12:14:40;;;;;;;5.47;3.13;;;20.50;65.30;;;;;;5022917;28;20072;-64
2023/09/14 12:17:25;;;;;;;5.75;2.75;;;20.40;65.30;;;;;;5020108;28;20065;-64
2023/09/14 12:19:55;;;;;;;5.93;2.90;;;20.40;65.90;;;;;;5023101;28;20095;-64
2023/09/14 12:22:21;;;;;;;3.35;2.35;;;20.40;65.20;;;;;;5016944;28;20060;-64
2023/09/14 12:24:49;;;;;;;4.57;2.72;;;20.40;65.20;;;;;;5016850;28;20029;-63
2023/09/14 12:27:16;;;;;;;4.95;2.55;;;20.50;66.10;;;;;;5018663;28;20204;-64
2023/09/14 12:29:42;;;;;;;3.40;2.55;;;20.60;66.10;;;;;;5020903;28;20033;-63
2023/09/14 12:32:08;;;;;;;4.10;2.45;;;20.70;66.00;;;;;;5004981;28;20053;-64
2023/09/14 12:34:34;;;;;;;4.40;2.65;;;20.80;65.70;;;;;;5016990;28;20508;-60
2023/09/14 12:37:01;;;;;;;4.82;1.98;;;20.80;65.60;;;;;;5017406;28;20049;-64
2023/09/14 12:39:26;;;;;;;5.00;2.30;;;20.70;63.30;;;;;;5025419;28;20038;-64
2023/09/14 12:41:53;;;;;;;5.00;2.10;;;20.50;65.40;;;;;;5024184;28;20038;-62
2023/09/14 12:44:23;;;;;;;4.25;2.50;;;20.50;65.70;;;;;;5022723;28;20106;-63
2023/09/14 12:46:51;;;;;;;4.57;1.98;;;20.50;64.40;;;;;;5021007;28;20030;-64
2023/09/14 12:49:17;;;;;;;6.97;2.40;;;20.60;65.50;;;;;;5020067;28;20064;-64